Time;durP1;ratioP1;P1;durP2;ratioP2;P2;SDS_P1;SDS_P2;PMS_P1;PMS_P2;Temp;Humidity;BMP_temperature;BMP_pressure;BME280_temperature;BME280_humidity;BME280_pressure;Samples;Min_cycle;Max_cycle;Signal;HPM_P1;HPM_P2
2021/12/22 00:01:58;;;;;;;4.43;4.03;;;;;;;;;;4867978;29;34129;-68
2021/12/22 00:04:27;;;;;;;4.65;4.25;;;;;;;;;;4867487;29;32418;-66
2021/12/22 00:06:55;;;;;;;4.40;4.10;;;;;;;;;;4867834;29;32699;-67
2021/12/22 00:09:23;;;;;;;4.47;4.07;;;;;;;;;;4867353;29;32745;-69
2021/12/22 00:11:51;;;;;;;4.15;3.85;;;;;;;;;;4867762;29;32182;-70
2021/12/22 00:14:19;;;;;;;4.75;4.30;;;;;;;;;;4867928;29;32356;-69
2021/12/22 00:16:47;;;;;;;4.00;3.70;;;;;;;;;;4867502;29;32403;-67
2021/12/22 00:19:15;;;;;;;4.03;3.72;;;;;;;;;;4867139;29;32510;-69
2021/12/22 00:21:44;;;;;;;3.80;3.50;;;;;;;;;;4867830;29;32253;-68
2021/12/22 00:24:12;;;;;;;4.10;3.65;;;;;;;;;;4867375;29;33930;-67
2021/12/22 00:26:40;;;;;;;4.45;4.15;;;;;;;;;;4867825;29;32483;-68
2021/12/22 00:29:09;;;;;;;3.65;3.35;;;;;;;;;;4867373;29;32397;-67
2021/12/22 00:31:42;;;;;;;3.95;3.65;;;;;;;;;;4867374;29;32401;-68
2021/12/22 00:34:16;;;;;;;4.25;3.95;;;;;;;;;;4867468;29;33914;-67
2021/12/22 00:36:46;;;;;;;4.20;3.75;;;;;;;;;;4867598;29;32469;-66
2021/12/22 00:39:14;;;;;;;4.10;3.80;;;;;;;;;;4867296;29;32368;-67
2021/12/22 00:41:42;;;;;;;3.67;3.42;;;;;;;;;;4867799;29;32308;-67
2021/12/22 00:44:12;;;;;;;3.45;3.25;;;;;;;;;;4867092;29;32241;-67
2021/12/22 00:46:40;;;;;;;3.88;3.58;;;;;;;;;;4867743;29;35027;-69
2021/12/22 00:49:08;;;;;;;3.47;3.17;;;;;;;;;;4867572;29;32225;-68
2021/12/22 00:51:37;;;;;;;3.50;3.30;;;;;;;;;;4867274;29;32660;-66
2021/12/22 00:54:06;;;;;;;3.95;3.65;;;;;;;;;;4867570;29;32253;-66
2021/12/22 00:56:37;;;;;;;3.50;3.20;;;;;;;;;;4866479;29;34684;-66
2021/12/22 00:59:05;;;;;;;4.03;3.25;;;;;;;;;;4867075;29;32446;-68
2021/12/22 01:01:33;;;;;;;4.20;3.28;;;;;;;;;;4867078;29;32547;-65
2021/12/22 01:04:01;;;;;;;4.43;4.07;;;;;;;;;;4860617;29;32314;-66
2021/12/22 01:06:29;;;;;;;4.20;3.30;;;;;;;;;;4848380;29;32466;-67
2021/12/22 01:08:57;;;;;;;3.83;3.00;;;;;;;;;;4861339;29;35049;-68
2021/12/22 01:11:26;;;;;;;3.40;3.10;;;;;;;;;;4866783;29;32421;-67
2021/12/22 01:13:54;;;;;;;4.03;3.70;;;;;;;;;;4866812;29;32391;-67
2021/12/22 01:16:22;;;;;;;3.95;3.55;;;;;;;;;;4867047;29;32322;-68
2021/12/22 01:18:51;;;;;;;3.30;3.00;;;;;;;;;;4866497;29;35570;-66
2021/12/22 01:21:24;;;;;;;5.13;3.53;;;;;;;;;;4866843;29;32499;-68
2021/12/22 01:24:01;;;;;;;3.58;3.28;;;;;;;;;;4866889;29;32448;-67
2021/12/22 01:26:40;;;;;;;4.10;3.80;;;;;;;;;;4866614;29;32502;-69
2021/12/22 01:29:07;;;;;;;3.97;3.67;;;;;;;;;;4866918;29;32331;-67
2021/12/22 01:31:35;;;;;;;3.47;3.17;;;;;;;;;;4866654;29;34162;-67
2021/12/22 01:34:03;;;;;;;3.47;3.17;;;;;;;;;;4866741;29;32166;-66
2021/12/22 01:36:31;;;;;;;3.72;3.38;;;;;;;;;;4866908;29;32683;-68
2021/12/22 01:38:59;;;;;;;4.00;3.30;;;;;;;;;;4867001;29;32193;-68
2021/12/22 01:41:28;;;;;;;3.53;3.22;;;;;;;;;;4866909;29;33932;-67
2021/12/22 01:43:57;;;;;;;3.80;3.42;;;;;;;;;;4866768;29;32177;-68
2021/12/22 01:49:39;;;;;;;3.83;3.53;;;;;;;;;;4853083;29;32394;-69
2021/12/22 01:52:08;;;;;;;5.70;4.28;;;;;;;;;;4864045;29;32873;-69
2021/12/22 01:54:41;;;;;;;4.05;3.65;;;;;;;;;;4865001;28;34805;-67
2021/12/22 01:57:11;;;;;;;5.97;4.20;;;;;;;;;;4864811;29;32552;-67
2021/12/22 01:59:45;;;;;;;4.30;3.90;;;;;;;;;;4863938;29;32522;-68
2021/12/22 02:02:16;;;;;;;5.53;4.07;;;;;;;;;;4866171;29;32128;-68
2021/12/22 02:04:44;;;;;;;4.33;3.93;;;;;;;;;;4866424;29;34265;-67
2021/12/22 02:07:13;;;;;;;4.88;4.03;;;;;;;;;;4866618;29;32498;-67
2021/12/22 02:10:02;;;;;;;4.88;4.35;;;;;;;;;;4868803;29;32292;-67
2021/12/22 02:12:35;;;;;;;4.45;4.15;;;;;;;;;;4869137;29;32428;-67
2021/12/22 02:15:06;;;;;;;4.68;4.28;;;;;;;;;;4867839;29;32515;-66
2021/12/22 02:17:36;;;;;;;;;;;;;;;;;;4869069;29;35566;-68
2021/12/22 02:20:07;;;;;;;4.40;3.88;;;;;;;;;;4868983;29;32307;-69
2021/12/22 02:22:36;;;;;;;4.63;4.22;;;;;;;;;;4869035;29;32504;-66
2021/12/22 02:25:12;;;;;;;5.68;4.22;;;;;;;;;;4869082;29;32397;-66
2021/12/22 02:27:46;;;;;;;4.90;4.32;;;;;;;;;;4865513;29;33999;-67
2021/12/22 02:30:18;;;;;;;4.63;4.22;;;;;;;;;;4850221;29;32437;-68
2021/12/22 02:33:20;;;;;;;8.15;4.20;;;;;;;;;;4861327;29;32508;-65
2021/12/22 02:36:08;;;;;;;5.13;4.30;;;;;;;;;;4867156;29;32933;-68
2021/12/22 02:38:40;;;;;;;5.25;3.85;;;;;;;;;;4849603;29;32496;-69
2021/12/22 02:41:11;;;;;;;4.45;3.92;;;;;;;;;;4850364;29;36028;-66
2021/12/22 02:43:45;;;;;;;7.05;4.15;;;;;;;;;;4864814;29;32465;-68
2021/12/22 02:46:14;;;;;;;4.30;3.85;;;;;;;;;;4868657;29;32241;-68
2021/12/22 02:48:43;;;;;;;9.40;3.80;;;;;;;;;;4868869;29;32345;-70
2021/12/22 02:51:12;;;;;;;3.88;3.58;;;;;;;;;;4868243;29;35770;-69
2021/12/22 02:53:42;;;;;;;4.15;3.78;;;;;;;;;;4868828;29;32483;-67
2021/12/22 02:56:27;;;;;;;4.00;3.63;;;;;;;;;;4868334;29;32338;-69
2021/12/22 02:59:02;;;;;;;4.13;3.72;;;;;;;;;;4868547;29;32438;-68
2021/12/22 03:02:05;;;;;;;4.28;3.70;;;;;;;;;;4868682;29;32457;-67
2021/12/22 03:04:34;;;;;;;3.80;3.47;;;;;;;;;;4868017;29;35426;-71
2021/12/22 03:07:10;;;;;;;4.18;3.78;;;;;;;;;;4868516;29;32543;-66
2021/12/22 03:09:38;;;;;;;4.75;4.00;;;;;;;;;;4868375;29;32543;-66
2021/12/22 03:12:10;;;;;;;9.27;3.88;;;;;;;;;;4868500;29;32335;-65
2021/12/22 03:14:38;;;;;;;4.53;3.78;;;;;;;;;;4868403;29;35624;-69
2021/12/22 03:17:06;;;;;;;4.82;3.17;;;;;;;;;;4867768;29;32332;-66
2021/12/22 03:19:36;;;;;;;4.15;3.85;;;;;;;;;;4867752;29;32379;-66
2021/12/22 03:22:10;;;;;;;4.20;3.80;;;;;;;;;;4868123;29;32446;-69
2021/12/22 03:24:40;;;;;;;4.43;4.07;;;;;;;;;;4868742;29;32367;-65
2021/12/22 03:27:08;;;;;;;4.60;4.20;;;;;;;;;;4867494;29;35107;-69
2021/12/22 03:29:39;;;;;;;4.75;3.83;;;;;;;;;;4867172;29;32477;-66
2021/12/22 03:32:08;;;;;;;5.32;4.38;;;;;;;;;;4867584;29;32327;-68
2021/12/22 03:34:36;;;;;;;3.88;3.55;;;;;;;;;;4866667;29;32438;-66
2021/12/22 03:37:08;;;;;;;4.75;4.35;;;;;;;;;;4867795;29;34549;-66
2021/12/22 03:39:36;;;;;;;4.90;4.40;;;;;;;;;;4867492;29;32127;-66
2021/12/22 03:42:05;;;;;;;6.40;3.97;;;;;;;;;;4866300;29;32586;-65
2021/12/22 03:44:33;;;;;;;4.38;4.07;;;;;;;;;;4867665;29;32449;-66
2021/12/22 03:47:01;;;;;;;4.18;3.78;;;;;;;;;;4864602;29;32419;-66
2021/12/22 03:49:29;;;;;;;4.80;4.40;;;;;;;;;;4864702;29;35092;-67
2021/12/22 03:51:57;;;;;;;5.45;4.30;;;;;;;;;;4864575;29;32471;-66
2021/12/22 03:54:27;;;;;;;5.45;4.35;;;;;;;;;;4864974;29;32365;-68
2021/12/22 03:56:55;;;;;;;4.80;4.07;;;;;;;;;;4866697;29;32452;-66
2021/12/22 03:59:24;;;;;;;4.85;4.35;;;;;;;;;;4867166;29;34534;-67
2021/12/22 04:01:53;;;;;;;4.03;3.72;;;;;;;;;;4867570;29;32602;-66
2021/12/22 04:04:21;;;;;;;4.15;3.85;;;;;;;;;;4867891;29;32427;-66
2021/12/22 04:06:50;;;;;;;5.85;4.00;;;;;;;;;;4867589;29;32506;-67
2021/12/22 04:09:26;;;;;;;5.47;4.38;;;;;;;;;;4867713;29;32352;-69
2021/12/22 04:11:56;;;;;;;6.00;4.20;;;;;;;;;;4867747;29;33925;-67
2021/12/22 04:14:23;;;;;;;4.85;4.20;;;;;;;;;;4867427;29;32549;-67
2021/12/22 04:16:51;;;;;;;5.95;4.88;;;;;;;;;;4867558;29;32431;-66
2021/12/22 04:19:19;;;;;;;4.80;4.40;;;;;;;;;;4868004;29;32489;-66
2021/12/22 04:21:49;;;;;;;9.77;4.20;;;;;;;;;;4867033;29;34531;-67
2021/12/22 04:24:17;;;;;;;4.28;3.88;;;;;;;;;;4866982;29;32575;-66
2021/12/22 04:26:45;;;;;;;5.03;4.25;;;;;;;;;;4867146;29;32340;-65
2021/12/22 04:29:14;;;;;;;4.57;4.20;;;;;;;;;;4867127;29;32426;-65
2021/12/22 04:31:42;;;;;;;6.13;4.35;;;;;;;;;;4865896;29;32443;-67
2021/12/22 04:34:11;;;;;;;4.50;4.10;;;;;;;;;;4867632;29;34219;-69
2021/12/22 04:36:40;;;;;;;4.90;4.50;;;;;;;;;;4867217;29;32334;-69
2021/12/22 04:39:10;;;;;;;6.30;4.57;;;;;;;;;;4867051;29;32374;-66
2021/12/22 04:41:38;;;;;;;4.50;4.07;;;;;;;;;;4867381;29;32411;-65
2021/12/22 04:44:07;;;;;;;4.20;3.85;;;;;;;;;;4866689;29;35518;-66
2021/12/22 04:46:36;;;;;;;4.90;4.50;;;;;;;;;;4867150;29;32520;-67
2021/12/22 04:49:05;;;;;;;4.82;4.43;;;;;;;;;;4867673;29;32502;-66
2021/12/22 04:51:35;;;;;;;5.32;4.80;;;;;;;;;;4867390;29;32386;-66
2021/12/22 04:54:12;;;;;;;5.00;4.45;;;;;;;;;;4867986;29;32445;-65
2021/12/22 04:56:40;;;;;;;4.80;4.35;;;;;;;;;;4867287;29;34585;-65
2021/12/22 04:59:08;;;;;;;6.47;4.80;;;;;;;;;;4867114;29;32382;-65
2021/12/22 05:01:38;;;;;;;5.05;4.65;;;;;;;;;;4867292;29;32237;-68
2021/12/22 05:04:06;;;;;;;6.80;6.20;;;;;;;;;;4865860;29;32355;-67
2021/12/22 05:06:35;;;;;;;6.70;5.45;;;;;;;;;;4867249;29;34210;-68
2021/12/22 05:09:03;;;;;;;5.50;5.00;;;;;;;;;;4866954;29;32489;-69
2021/12/22 05:11:31;;;;;;;4.25;3.85;;;;;;;;;;4867160;29;32511;-66
2021/12/22 05:13:59;;;;;;;5.13;4.65;;;;;;;;;;4867475;29;32426;-70
2021/12/22 05:16:27;;;;;;;6.35;4.70;;;;;;;;;;4867496;29;32469;-68
2021/12/22 05:18:59;;;;;;;5.43;4.88;;;;;;;;;;4867316;29;35770;-67
2021/12/22 05:21:28;;;;;;;5.22;4.82;;;;;;;;;;4867373;29;32792;-67
2021/12/22 05:23:57;;;;;;;8.38;4.90;;;;;;;;;;4866699;29;32427;-68
2021/12/22 05:26:25;;;;;;;5.80;4.75;;;;;;;;;;4867066;29;32164;-68
2021/12/22 05:28:55;;;;;;;4.95;4.55;;;;;;;;;;4866959;29;34766;-67
2021/12/22 05:31:23;;;;;;;5.18;4.70;;;;;;;;;;4866726;29;32146;-70
2021/12/22 05:33:51;;;;;;;4.70;4.25;;;;;;;;;;4866936;29;32396;-68
2021/12/22 05:36:21;;;;;;;5.28;4.78;;;;;;;;;;4880932;29;32513;-68
2021/12/22 05:38:49;;;;;;;5.45;4.85;;;;;;;;;;4866749;29;32390;-66
2021/12/22 05:41:16;;;;;;;4.90;4.40;;;;;;;;;;4866973;29;35243;-65
2021/12/22 05:43:44;;;;;;;5.20;4.80;;;;;;;;;;4866209;29;32475;-66
2021/12/22 05:46:12;;;;;;;5.88;4.82;;;;;;;;;;4866185;29;32375;-66
2021/12/22 05:48:40;;;;;;;5.15;4.65;;;;;;;;;;4866723;29;32142;-65
2021/12/22 05:51:08;;;;;;;5.05;4.40;;;;;;;;;;4866480;29;34047;-69
2021/12/22 05:53:38;;;;;;;5.28;4.75;;;;;;;;;;4866396;29;32448;-66
2021/12/22 05:56:07;;;;;;;5.40;4.90;;;;;;;;;;4866576;29;32332;-67
2021/12/22 05:58:35;;;;;;;5.55;4.72;;;;;;;;;;4865816;29;32532;-67
2021/12/22 06:01:03;;;;;;;6.90;4.18;;;;;;;;;;4866524;29;32416;-67
2021/12/22 06:03:31;;;;;;;6.25;4.28;;;;;;;;;;4865803;29;34099;-66
2021/12/22 06:05:59;;;;;;;5.22;4.72;;;;;;;;;;4866422;29;32401;-66
2021/12/22 06:08:27;;;;;;;7.47;5.97;;;;;;;;;;4866468;29;32317;-67
2021/12/22 06:10:56;;;;;;;6.22;5.47;;;;;;;;;;4866414;29;32249;-67
2021/12/22 06:13:24;;;;;;;7.25;6.00;;;;;;;;;;4866521;29;34070;-68
2021/12/22 06:15:52;;;;;;;6.63;6.00;;;;;;;;;;4866384;29;32887;-68
2021/12/22 06:18:20;;;;;;;10.05;6.68;;;;;;;;;;4865955;29;32236;-67
2021/12/22 06:20:48;;;;;;;6.55;5.90;;;;;;;;;;4866120;29;32340;-66
2021/12/22 06:23:16;;;;;;;10.10;6.53;;;;;;;;;;4865752;29;32238;-69
2021/12/22 06:25:44;;;;;;;8.95;5.80;;;;;;;;;;4865986;29;34112;-66
2021/12/22 06:28:13;;;;;;;7.90;5.88;;;;;;;;;;4865595;29;32327;-69
2021/12/22 06:30:41;;;;;;;6.72;5.70;;;;;;;;;;4865780;29;32350;-66
2021/12/22 06:33:09;;;;;;;6.18;5.63;;;;;;;;;;4866469;29;32475;-68
2021/12/22 06:35:37;;;;;;;6.22;5.25;;;;;;;;;;4865241;29;35467;-67
2021/12/22 06:38:05;;;;;;;7.50;5.68;;;;;;;;;;4865988;29;32348;-66
2021/12/22 06:40:33;;;;;;;5.40;4.85;;;;;;;;;;4865934;29;32385;-66
2021/12/22 06:43:01;;;;;;;6.55;5.30;;;;;;;;;;4865848;29;32387;-65
2021/12/22 06:45:31;;;;;;;5.13;4.72;;;;;;;;;;4866310;29;32340;-65
2021/12/22 06:47:59;;;;;;;6.63;4.38;;;;;;;;;;4864486;29;36160;-69
2021/12/22 06:50:27;;;;;;;5.47;4.90;;;;;;;;;;4865741;29;32356;-65
2021/12/22 06:52:55;;;;;;;5.90;4.82;;;;;;;;;;4865584;29;32240;-66
2021/12/22 06:55:25;;;;;;;5.40;4.90;;;;;;;;;;4868026;29;32330;-69
2021/12/22 06:57:53;;;;;;;5.10;4.32;;;;;;;;;;4868835;29;35467;-69
2021/12/22 07:00:21;;;;;;;4.80;4.40;;;;;;;;;;4868077;29;32414;-66
2021/12/22 07:02:50;;;;;;;4.75;4.10;;;;;;;;;;4868625;29;32421;-67
2021/12/22 07:05:18;;;;;;;5.40;4.57;;;;;;;;;;4868298;29;32509;-65
2021/12/22 07:07:46;;;;;;;5.63;5.22;;;;;;;;;;4868507;29;32403;-66
2021/12/22 07:10:14;;;;;;;5.32;3.78;;;;;;;;;;4868573;29;33963;-64
2021/12/22 07:12:45;;;;;;;4.90;4.53;;;;;;;;;;4857235;29;32312;-66
2021/12/22 07:15:14;;;;;;;5.43;4.63;;;;;;;;;;4848803;29;32329;-68
2021/12/22 07:17:43;;;;;;;4.93;4.53;;;;;;;;;;4847906;29;32565;-66
2021/12/22 07:20:14;;;;;;;5.80;4.63;;;;;;;;;;4847851;29;35723;-69
2021/12/22 07:22:42;;;;;;;5.50;5.00;;;;;;;;;;4850197;29;32346;-66
2021/12/22 07:25:13;;;;;;;6.65;6.05;;;;;;;;;;4849960;29;32337;-68
2021/12/22 07:27:41;;;;;;;7.10;6.47;;;;;;;;;;4850111;29;32179;-65
2021/12/22 07:30:11;;;;;;;9.52;6.60;;;;;;;;;;4849938;29;32430;-66
2021/12/22 07:32:39;;;;;;;12.73;6.75;;;;;;;;;;4849373;29;33927;-66
2021/12/22 07:35:11;;;;;;;7.43;6.53;;;;;;;;;;4849101;29;32334;-67
2021/12/22 07:37:48;;;;;;;6.85;6.15;;;;;;;;;;4849471;29;32313;-65
2021/12/22 07:40:20;;;;;;;8.93;6.43;;;;;;;;;;4849438;29;32447;-66
2021/12/22 07:42:49;;;;;;;6.35;5.78;;;;;;;;;;4849521;29;34728;-72
2021/12/22 07:45:16;;;;;;;8.45;5.32;;;;;;;;;;4849486;29;32374;-66
2021/12/22 07:47:44;;;;;;;8.38;5.78;;;;;;;;;;4849882;29;32376;-68
2021/12/22 07:50:14;;;;;;;8.55;5.90;;;;;;;;;;4849699;29;32233;-66
2021/12/22 07:52:42;;;;;;;6.40;5.57;;;;;;;;;;4850034;29;32387;-67
2021/12/22 07:55:10;;;;;;;10.20;6.18;;;;;;;;;;4849153;29;34041;-66
2021/12/22 07:57:38;;;;;;;9.18;6.05;;;;;;;;;;4849659;29;32419;-67
2021/12/22 08:00:09;;;;;;;10.82;5.18;;;;;;;;;;4848769;29;32532;-68
2021/12/22 08:02:37;;;;;;;6.22;5.63;;;;;;;;;;4849496;29;32356;-68
2021/12/22 08:05:06;;;;;;;7.13;5.93;;;;;;;;;;4849240;29;33926;-68
2021/12/22 08:07:36;;;;;;;11.25;7.40;;;;;;;;;;4848692;29;32237;-66
2021/12/22 08:10:05;;;;;;;9.48;7.07;;;;;;;;;;4849431;29;32423;-68
2021/12/22 08:12:33;;;;;;;6.97;6.28;;;;;;;;;;4848614;29;32442;-69
2021/12/22 08:15:02;;;;;;;6.43;5.65;;;;;;;;;;4848020;29;32615;-68
2021/12/22 08:17:32;;;;;;;6.72;6.03;;;;;;;;;;4849066;29;34216;-67
2021/12/22 08:20:00;;;;;;;6.80;5.93;;;;;;;;;;4848788;29;32512;-70
2021/12/22 08:22:28;;;;;;;9.10;6.65;;;;;;;;;;4848768;29;32468;-67
2021/12/22 08:24:58;;;;;;;7.40;6.20;;;;;;;;;;4849414;29;32469;-66
2021/12/22 08:27:26;;;;;;;9.07;6.30;;;;;;;;;;4849096;29;34015;-68
2021/12/22 08:29:54;;;;;;;7.60;6.82;;;;;;;;;;4849341;29;32523;-66
2021/12/22 08:32:22;;;;;;;8.18;6.80;;;;;;;;;;4848557;29;32289;-65
2021/12/22 08:34:54;;;;;;;6.22;5.72;;;;;;;;;;4848457;29;32438;-66
2021/12/22 08:40:17;;;;;;;6.63;6.03;;;;;;;;;;4811561;29;35009;-67
2021/12/22 08:42:46;;;;;;;7.22;6.15;;;;;;;;;;4847022;29;32460;-65
2021/12/22 08:45:15;;;;;;;8.15;5.88;;;;;;;;;;4849085;29;32359;-67
2021/12/22 08:47:43;;;;;;;7.47;6.25;;;;;;;;;;4847488;29;32449;-67
2021/12/22 08:50:13;;;;;;;7.65;6.53;;;;;;;;;;4848669;29;34605;-67
2021/12/22 08:52:41;;;;;;;10.68;5.68;;;;;;;;;;4848776;29;32442;-69
2021/12/22 08:55:10;;;;;;;10.07;6.50;;;;;;;;;;4849216;29;32442;-67
2021/12/22 08:57:40;;;;;;;10.02;6.28;;;;;;;;;;4846956;29;32466;-68
2021/12/22 09:00:10;;;;;;;6.75;6.03;;;;;;;;;;4848096;29;32718;-70
2021/12/22 09:02:39;;;;;;;7.25;6.50;;;;;;;;;;4848643;29;32403;-67
2021/12/22 09:05:08;;;;;;;8.80;7.03;;;;;;;;;;4848224;29;32437;-67
2021/12/22 09:07:36;;;;;;;7.00;5.97;;;;;;;;;;4846834;29;32215;-68
2021/12/22 09:10:06;;;;;;;6.88;6.05;;;;;;;;;;4848242;29;32376;-68
2021/12/22 09:12:34;;;;;;;8.18;6.50;;;;;;;;;;4848580;29;33950;-65
2021/12/22 09:15:07;;;;;;;8.85;6.53;;;;;;;;;;4848458;29;32441;-66
2021/12/22 09:17:35;;;;;;;8.23;6.70;;;;;;;;;;4847564;29;32442;-68
2021/12/22 09:20:04;;;;;;;7.80;7.07;;;;;;;;;;4846723;29;32414;-67
2021/12/22 09:22:31;;;;;;;8.77;6.57;;;;;;;;;;4848302;29;32521;-66
2021/12/22 09:24:59;;;;;;;11.98;6.50;;;;;;;;;;4848622;29;32507;-66
2021/12/22 09:27:27;;;;;;;8.32;6.25;;;;;;;;;;4848865;29;32344;-68
2021/12/22 09:29:55;;;;;;;8.05;6.65;;;;;;;;;;4848166;29;32352;-67
2021/12/22 09:32:25;;;;;;;10.82;7.18;;;;;;;;;;4848007;29;32221;-70
2021/12/22 09:34:53;;;;;;;8.90;6.78;;;;;;;;;;4846657;29;34029;-67
2021/12/22 09:37:21;;;;;;;9.82;6.90;;;;;;;;;;4848123;29;32456;-67
2021/12/22 09:39:49;;;;;;;8.07;6.68;;;;;;;;;;4847722;29;32397;-69
2021/12/22 09:42:18;;;;;;;8.25;7.03;;;;;;;;;;4847540;29;32261;-65
2021/12/22 09:44:47;;;;;;;6.97;6.25;;;;;;;;;;4857133;29;32418;-69
2021/12/22 09:47:26;;;;;;;11.93;6.38;;;;;;;;;;4866327;29;32512;-68
2021/12/22 09:50:09;;;;;;;7.45;6.15;;;;;;;;;;4847343;29;32375;-66
2021/12/22 09:52:39;;;;;;;9.15;6.85;;;;;;;;;;4847826;29;32315;-66
2021/12/22 09:55:09;;;;;;;9.95;7.20;;;;;;;;;;4848020;29;32623;-66
2021/12/22 09:57:37;;;;;;;9.20;7.43;;;;;;;;;;4847329;29;34425;-67
2021/12/22 10:00:08;;;;;;;11.82;7.20;;;;;;;;;;4847223;29;32301;-67
2021/12/22 10:02:36;;;;;;;11.07;6.88;;;;;;;;;;4847898;29;32481;-66
2021/12/22 10:05:06;;;;;;;10.30;6.40;;;;;;;;;;4847861;29;32340;-67
2021/12/22 10:07:38;;;;;;;11.80;6.75;;;;;;;;;;4847405;29;32439;-67
2021/12/22 10:10:10;;;;;;;6.57;5.97;;;;;;;;;;4847593;29;32372;-65
2021/12/22 10:12:39;;;;;;;9.85;6.72;;;;;;;;;;4847694;29;32372;-66
2021/12/22 10:15:10;;;;;;;9.73;6.63;;;;;;;;;;4847798;29;32920;-67
2021/12/22 10:17:41;;;;;;;7.80;7.07;;;;;;;;;;4847539;29;32621;-70
2021/12/22 10:20:14;;;;;;;6.55;6.00;;;;;;;;;;4847535;29;35548;-66
2021/12/22 10:22:46;;;;;;;9.82;7.10;;;;;;;;;;4847307;29;32360;-70
2021/12/22 10:25:18;;;;;;;8.43;6.25;;;;;;;;;;4847561;29;32297;-67
2021/12/22 10:27:48;;;;;;;11.25;7.18;;;;;;;;;;4847697;29;32271;-67
2021/12/22 10:30:29;;;;;;;8.20;6.97;;;;;;;;;;4848986;29;32808;-65
2021/12/22 10:33:13;;;;;;;9.25;6.75;;;;;;;;;;4850196;29;32371;-66
2021/12/22 10:35:45;;;;;;;10.13;7.03;;;;;;;;;;4850388;29;32453;-69
2021/12/22 10:38:15;;;;;;;10.10;7.78;;;;;;;;;;4850498;29;32457;-71
2021/12/22 10:40:45;;;;;;;9.05;6.75;;;;;;;;;;4850364;29;32496;-67
2021/12/22 10:43:19;;;;;;;9.65;7.22;;;;;;;;;;4849995;29;34634;-69
2021/12/22 10:45:51;;;;;;;8.18;6.95;;;;;;;;;;4849277;29;32292;-66
2021/12/22 10:51:29;;;;;;;11.57;7.00;;;;;;;;;;4829065;29;32389;-67
2021/12/22 10:53:57;;;;;;;13.13;8.48;;;;;;;;;;4846110;29;32328;-69
2021/12/22 10:56:29;;;;;;;10.13;8.05;;;;;;;;;;4849437;29;32230;-66
2021/12/22 10:59:03;;;;;;;13.75;8.25;;;;;;;;;;4849426;29;32397;-66
2021/12/22 11:01:34;;;;;;;11.93;7.40;;;;;;;;;;4849389;29;32410;-67
2021/12/22 11:04:03;;;;;;;9.13;7.85;;;;;;;;;;4850185;29;32541;-69
2021/12/22 11:06:35;;;;;;;13.50;7.55;;;;;;;;;;4849327;29;33932;-66
2021/12/22 11:09:09;;;;;;;11.70;6.22;;;;;;;;;;4850203;29;32308;-68
2021/12/22 11:11:41;;;;;;;8.90;6.97;;;;;;;;;;4849724;29;32205;-65
2021/12/22 11:14:16;;;;;;;9.25;6.97;;;;;;;;;;4850167;29;32330;-66
2021/12/22 11:17:06;;;;;;;10.10;6.50;;;;;;;;;;4849603;29;33952;-66
2021/12/22 11:19:37;;;;;;;9.32;6.57;;;;;;;;;;4850097;29;32444;-66
2021/12/22 11:22:13;;;;;;;9.95;6.78;;;;;;;;;;4849957;29;32297;-68
2021/12/22 11:24:45;;;;;;;12.73;6.18;;;;;;;;;;4857734;29;32313;-66
2021/12/22 11:27:16;;;;;;;9.73;7.10;;;;;;;;;;4868571;29;32570;-67
2021/12/22 11:29:47;;;;;;;13.93;7.07;;;;;;;;;;4848305;29;34368;-66
2021/12/22 11:32:17;;;;;;;8.15;6.50;;;;;;;;;;4846984;29;32360;-68
2021/12/22 11:34:50;;;;;;;8.63;6.57;;;;;;;;;;4848626;29;32331;-67
2021/12/22 11:37:22;;;;;;;7.97;6.07;;;;;;;;;;4850244;29;32357;-68
2021/12/22 11:39:50;;;;;;;9.02;5.93;;;;;;;;;;4849388;29;35166;-69
2021/12/22 11:42:23;;;;;;;7.22;5.78;;;;;;;;;;4849208;29;32234;-66
2021/12/22 11:44:57;;;;;;;9.43;5.03;;;;;;;;;;4849621;29;32133;-67
2021/12/22 11:47:25;;;;;;;6.90;5.93;;;;;;;;;;4849185;29;32429;-66
2021/12/22 11:49:57;;;;;;;6.32;5.13;;;;;;;;;;4849371;29;32387;-66
2021/12/22 11:52:32;;;;;;;5.80;5.22;;;;;;;;;;4849485;29;35252;-65
2021/12/22 11:55:15;;;;;;;6.15;5.53;;;;;;;;;;4847642;29;32509;-65
2021/12/22 11:57:45;;;;;;;5.30;4.80;;;;;;;;;;4849612;29;32336;-65
2021/12/22 12:00:37;;;;;;;5.75;5.20;;;;;;;;;;4848415;29;32226;-67
2021/12/22 12:03:26;;;;;;;5.43;4.85;;;;;;;;;;4839375;29;35240;-67
2021/12/22 12:06:10;;;;;;;5.78;4.90;;;;;;;;;;4849021;29;32689;-66
2021/12/22 12:08:43;;;;;;;7.00;5.55;;;;;;;;;;4849082;29;32217;-69
2021/12/22 12:11:14;;;;;;;6.38;5.18;;;;;;;;;;4849208;29;32332;-67
2021/12/22 12:13:49;;;;;;;7.13;5.33;;;;;;;;;;4849113;29;32333;-67
2021/12/22 12:22:31;;;;;;;10.60;8.48;;;;;;;;;;4849301;29;32223;-67
2021/12/22 12:25:12;;;;;;;12.18;8.85;;;;;;;;;;4849663;29;32423;-66
2021/12/22 12:27:51;;;;;;;11.25;9.57;;;;;;;;;;4849279;29;35729;-67
2021/12/22 12:30:25;;;;;;;13.95;9.95;;;;;;;;;;4847972;29;32489;-67
2021/12/22 12:33:21;;;;;;;18.95;10.05;;;;;;;;;;4849306;29;32471;-70
2021/12/22 12:36:11;;;;;;;13.85;10.27;;;;;;;;;;4848452;29;32283;-67
2021/12/22 12:38:49;;;;;;;12.73;10.07;;;;;;;;;;4849169;29;32418;-70
2021/12/22 12:41:34;;;;;;;22.50;10.70;;;;;;;;;;4847410;29;36110;-67
2021/12/22 12:44:24;;;;;;;11.93;8.50;;;;;;;;;;4847161;29;32435;-66
2021/12/22 12:46:54;;;;;;;16.90;8.73;;;;;;;;;;4832018;29;32392;-67
2021/12/22 12:49:39;;;;;;;12.88;8.60;;;;;;;;;;4847644;29;32413;-66
2021/12/22 12:52:20;;;;;;;11.63;8.23;;;;;;;;;;4848154;29;33929;-67
2021/12/22 12:54:50;;;;;;;19.80;9.20;;;;;;;;;;4848542;29;32456;-67
2021/12/22 12:57:32;;;;;;;14.38;8.48;;;;;;;;;;4848044;29;32335;-66
2021/12/22 13:00:05;;;;;;;10.95;8.02;;;;;;;;;;4847892;29;32406;-68
2021/12/22 13:02:35;;;;;;;19.77;8.35;;;;;;;;;;4848479;29;32402;-69
2021/12/22 13:05:11;;;;;;;15.55;8.15;;;;;;;;;;4848663;29;34531;-68
2021/12/22 13:07:39;;;;;;;17.13;8.30;;;;;;;;;;4848733;29;32521;-65
2021/12/22 13:10:13;;;;;;;9.18;8.13;;;;;;;;;;4847988;29;32456;-70
2021/12/22 13:15:49;;;;;;;14.52;8.27;;;;;;;;;;4848885;29;33918;-66
2021/12/22 13:18:29;;;;;;;17.83;8.52;;;;;;;;;;4848290;29;32388;-69
2021/12/22 13:21:06;;;;;;;21.00;9.20;;;;;;;;;;4848988;29;32348;-67
2021/12/22 13:23:34;;;;;;;19.25;9.38;;;;;;;;;;4848205;29;32556;-67
2021/12/22 13:26:03;;;;;;;23.23;9.88;;;;;;;;;;4848233;29;32400;-67
2021/12/22 13:28:36;;;;;;;16.17;8.57;;;;;;;;;;4848085;29;35022;-68
2021/12/22 13:31:06;;;;;;;24.05;9.95;;;;;;;;;;4848937;29;32316;-69
2021/12/22 13:33:37;;;;;;;12.43;7.82;;;;;;;;;;4848156;29;32407;-68
2021/12/22 13:36:07;;;;;;;12.75;6.60;;;;;;;;;;4852910;29;32443;-66
2021/12/22 13:38:38;;;;;;;9.40;7.43;;;;;;;;;;4867028;29;35040;-67
2021/12/22 13:41:10;;;;;;;9.60;6.78;;;;;;;;;;4853350;29;32186;-67
2021/12/22 13:43:42;;;;;;;9.48;6.53;;;;;;;;;;4848167;29;33058;-67
2021/12/22 13:46:18;;;;;;;7.78;5.78;;;;;;;;;;4848181;29;32337;-67
2021/12/22 13:48:51;;;;;;;10.23;6.13;;;;;;;;;;4848040;29;32315;-67
2021/12/22 13:51:21;;;;;;;6.97;6.28;;;;;;;;;;4847665;29;33960;-68
2021/12/22 13:53:51;;;;;;;10.90;6.27;;;;;;;;;;4847726;29;32317;-67
2021/12/22 13:56:20;;;;;;;8.23;6.32;;;;;;;;;;4847856;29;32267;-68
2021/12/22 13:58:52;;;;;;;7.85;6.35;;;;;;;;;;4847812;29;32804;-66
2021/12/22 14:01:29;;;;;;;6.60;5.93;;;;;;;;;;4847917;29;35976;-67
2021/12/22 14:04:13;;;;;;;6.82;5.70;;;;;;;;;;4849085;29;32300;-67
2021/12/22 14:06:44;;;;;;;7.40;5.82;;;;;;;;;;4850334;29;32505;-68
2021/12/22 14:09:17;;;;;;;11.65;6.43;;;;;;;;;;4850601;29;32388;-68
2021/12/22 14:11:49;;;;;;;6.97;6.00;;;;;;;;;;4850677;29;32324;-68
2021/12/22 14:14:33;;;;;;;;;;;;;;;;;;4851476;29;34458;-68
2021/12/22 14:17:20;;;;;;;12.65;5.72;;;;;;;;;;4859473;29;32451;-69
2021/12/22 14:20:14;;;;;;;8.48;5.35;;;;;;;;;;4856817;29;32374;-69
2021/12/22 14:22:45;;;;;;;15.27;7.80;;;;;;;;;;4861665;29;32371;-66
2021/12/22 14:25:17;;;;;;;9.45;6.32;;;;;;;;;;4857299;29;34592;-67
2021/12/22 14:27:48;;;;;;;;;;;;;;;;;;4862615;29;32485;-66
2021/12/22 14:30:38;;;;;;;8.55;5.78;;;;;;;;;;4857229;29;32483;-69
2021/12/22 14:33:08;;;;;;;8.93;5.90;;;;;;;;;;4862659;28;32444;-68
2021/12/22 14:35:38;;;;;;;9.40;6.75;;;;;;;;;;4863785;29;32465;-67
2021/12/22 14:38:08;;;;;;;11.75;6.70;;;;;;;;;;4852139;29;34033;-66
2021/12/22 14:40:38;;;;;;;6.00;5.47;;;;;;;;;;4856635;29;32224;-66
2021/12/22 14:43:09;;;;;;;9.73;6.30;;;;;;;;;;4859726;29;32657;-65
2021/12/22 14:45:45;;;;;;;7.05;5.78;;;;;;;;;;4860549;29;32357;-65
2021/12/22 14:48:19;;;;;;;10.52;6.03;;;;;;;;;;4852441;29;34517;-66
2021/12/22 14:51:01;;;;;;;11.50;6.13;;;;;;;;;;4855510;29;32413;-65
2021/12/22 14:53:33;;;;;;;6.82;6.22;;;;;;;;;;4861239;29;32420;-65
2021/12/22 14:56:03;;;;;;;6.30;5.72;;;;;;;;;;4853159;29;32776;-66
2021/12/22 14:58:31;;;;;;;6.80;6.18;;;;;;;;;;4860108;29;31846;-69
2021/12/22 15:01:03;;;;;;;7.68;6.85;;;;;;;;;;4865812;29;35556;-63
2021/12/22 15:03:30;;;;;;;;;;;;;;;;;;4857683;29;32457;-68
2021/12/22 15:06:01;;;;;;;8.25;6.47;;;;;;;;;;4865654;29;32486;-65
2021/12/22 15:08:30;;;;;;;7.05;6.40;;;;;;;;;;4857976;29;32734;-65
2021/12/22 15:11:01;;;;;;;7.97;7.18;;;;;;;;;;4861025;29;35635;-64
2021/12/22 15:13:30;;;;;;;7.40;6.72;;;;;;;;;;4862455;29;32394;-67
2021/12/22 15:15:59;;;;;;;7.85;7.05;;;;;;;;;;4863777;29;32486;-66
2021/12/22 15:18:27;;;;;;;10.77;6.78;;;;;;;;;;4859885;29;32404;-64
2021/12/22 15:20:55;;;;;;;7.15;6.45;;;;;;;;;;4864528;29;32411;-66
2021/12/22 15:23:24;;;;;;;7.72;6.97;;;;;;;;;;4857992;29;35448;-66